createdAt,value
2018-01-22T00:00:02.380Z,771.18
2018-01-22T00:00:06.290Z,771.14
2018-01-22T00:00:10.299Z,771.18
2018-01-22T00:00:14.329Z,771.18
2018-01-22T00:00:18.024Z,771.17
2018-01-22T00:00:22.243Z,771.19
2018-01-22T00:00:25.945Z,771.19
2018-01-22T00:00:29.738Z,771.18
2018-01-22T00:00:33.447Z,771.2
2018-01-22T00:00:37.450Z,771.21
2018-01-22T00:00:41.365Z,771.2
2018-01-22T00:00:45.490Z,771.19
2018-01-22T00:00:49.294Z,771.23
2018-01-22T00:00:53.198Z,771.23
2018-01-22T00:00:57.115Z,771.23
2018-01-22T00:01:01.033Z,771.24
2018-01-22T00:01:05.193Z,771.24
2018-01-22T00:01:09.216Z,771.25
2018-01-22T00:01:13.027Z,771.24
2018-01-22T00:01:17.065Z,771.27
2018-01-22T00:01:20.994Z,771.28
2018-01-22T00:01:24.905Z,771.28
2018-01-22T00:01:28.717Z,771.27
2018-01-22T00:01:32.634Z,771.33
2018-01-22T00:01:36.557Z,771.32
2018-01-22T00:01:40.473Z,771.32
2018-01-22T00:01:44.383Z,771.33
2018-01-22T00:01:48.377Z,771.34
2018-01-22T00:01:52.393Z,771.32
2018-01-22T00:01:56.510Z,771.36
2018-01-22T00:02:00.539Z,771.36
2018-01-22T00:02:04.816Z,771.33
2018-01-22T00:02:08.727Z,771.36
2018-01-22T00:02:12.753Z,771.35
2018-01-22T00:02:16.768Z,771.33
2018-01-22T00:02:20.803Z,771.38
2018-01-22T00:02:24.618Z,771.38
2018-01-22T00:02:28.505Z,771.39
2018-01-22T00:02:32.514Z,771.41
2018-01-22T00:02:36.437Z,771.43
2018-01-22T00:02:40.145Z,771.44
2018-01-22T00:02:44.275Z,771.44
2018-01-22T00:02:48.200Z,771.42
2018-01-22T00:02:52.013Z,771.44
2018-01-22T00:02:55.902Z,771.43
2018-01-22T00:02:59.700Z,771.43
2018-01-22T00:03:03.977Z,771.45
2018-01-22T00:03:08.217Z,771.48
2018-01-22T00:03:12.345Z,771.47
2018-01-22T00:03:16.364Z,771.42
2018-01-22T00:03:20.473Z,771.48
2018-01-22T00:03:24.603Z,771.46
2018-01-22T00:03:28.425Z,771.5
2018-01-22T00:03:32.333Z,771.47
2018-01-22T00:03:36.242Z,771.51
2018-01-22T00:03:40.259Z,771.51
2018-01-22T00:03:44.255Z,771.51
2018-01-22T00:03:48.083Z,771.53
2018-01-22T00:03:51.782Z,771.54
2018-01-22T00:03:55.822Z,771.54
2018-01-22T00:03:59.724Z,771.56
2018-01-22T00:04:03.857Z,771.55
2018-01-22T00:04:07.982Z,771.53
2018-01-22T00:04:11.992Z,771.53
2018-01-22T00:04:16.113Z,771.52
2018-01-22T00:04:19.908Z,771.52
2018-01-22T00:04:23.715Z,771.55
2018-01-22T00:04:27.751Z,771.52
2018-01-22T00:04:31.872Z,771.6
2018-01-22T00:04:35.775Z,771.62
2018-01-22T00:04:39.788Z,771.6
2018-01-22T00:04:43.813Z,771.63
2018-01-22T00:04:47.615Z,771.62
2018-01-22T00:04:51.624Z,771.64
2018-01-22T00:04:55.642Z,771.63
2018-01-22T00:04:59.657Z,771.62
2018-01-22T00:05:04.025Z,771.66
2018-01-22T00:05:07.982Z,771.67
2018-01-22T00:05:11.889Z,771.66
2018-01-22T00:05:15.802Z,771.69
2018-01-22T00:05:19.716Z,771.69
2018-01-22T00:05:23.615Z,771.7
2018-01-22T00:05:27.550Z,771.68
2018-01-22T00:05:31.373Z,771.72
2018-01-22T00:05:35.073Z,771.72
2018-01-22T00:05:38.974Z,771.71
2018-01-22T00:05:42.991Z,771.69
2018-01-22T00:05:46.795Z,771.71
2018-01-22T00:05:50.804Z,771.7
2018-01-22T00:05:54.620Z,771.71
2018-01-22T00:05:58.424Z,771.75
2018-01-22T00:06:02.754Z,771.73
2018-01-22T00:06:06.777Z,771.72
2018-01-22T00:06:10.799Z,771.76
2018-01-22T00:06:14.929Z,771.77
2018-01-22T00:06:18.833Z,771.73
2018-01-22T00:06:22.852Z,771.76
2018-01-22T00:06:26.650Z,771.78
2018-01-22T00:06:30.577Z,771.79
2018-01-22T00:06:34.377Z,771.77
2018-01-22T00:06:38.406Z,771.81
2018-01-22T00:06:42.208Z,771.82
2018-01-22T00:06:45.894Z,771.82
2018-01-22T00:06:49.712Z,771.82
2018-01-22T00:06:53.728Z,771.81
2018-01-22T00:06:57.743Z,771.85
2018-01-22T00:07:01.762Z,771.84
2018-01-22T00:07:05.673Z,771.84
2018-01-22T00:07:09.507Z,771.85
2018-01-22T00:07:13.209Z,771.89
2018-01-22T00:07:17.322Z,771.88
2018-01-22T00:07:21.121Z,771.87
2018-01-22T00:07:24.910Z,771.89
2018-01-22T00:07:28.715Z,771.9
2018-01-22T00:07:32.636Z,771.9
2018-01-22T00:07:36.571Z,771.93
2018-01-22T00:07:40.833Z,771.95
2018-01-22T00:07:44.957Z,771.94
2018-01-22T00:07:48.759Z,771.95
2018-01-22T00:07:52.661Z,771.94
2018-01-22T00:07:56.468Z,772.01
2018-01-22T00:08:00.480Z,771.95
2018-01-22T00:08:04.544Z,771.93
2018-01-22T00:08:08.465Z,771.96
2018-01-22T00:08:12.265Z,771.95
2018-01-22T00:08:16.282Z,771.95
2018-01-22T00:08:20.489Z,771.99
2018-01-22T00:08:24.385Z,771.99
2018-01-22T00:08:28.314Z,772.01
2018-01-22T00:08:32.014Z,772
2018-01-22T00:08:35.924Z,772
2018-01-22T00:08:40.041Z,772.01
2018-01-22T00:08:43.955Z,772.03
2018-01-22T00:08:47.888Z,772.02
2018-01-22T00:08:51.788Z,772.04
2018-01-22T00:08:55.710Z,772.02
2018-01-22T00:08:59.938Z,772.07
2018-01-22T00:09:03.857Z,772.06
2018-01-22T00:09:07.775Z,772.06
2018-01-22T00:09:11.575Z,772.07
2018-01-22T00:09:15.596Z,772.09
2018-01-22T00:09:19.624Z,772.09
2018-01-22T00:09:23.529Z,772.08
2018-01-22T00:09:59.326Z,772.16
2018-01-22T00:10:03.273Z,772.14
2018-01-22T00:10:07.293Z,772.15
2018-01-22T00:10:11.380Z,772.19
2018-01-22T00:10:15.610Z,772.19
2018-01-22T00:10:19.409Z,772.17
2018-01-22T00:10:23.431Z,772.22
2018-01-22T00:10:27.351Z,772.25
2018-01-22T00:10:31.273Z,772.23
2018-01-22T00:10:35.509Z,772.24
2018-01-22T00:10:39.424Z,772.25
2018-01-22T00:10:43.430Z,772.24
2018-01-22T00:10:47.352Z,772.25
2018-01-22T00:10:51.260Z,772.28
2018-01-22T00:10:55.275Z,772.26
2018-01-22T00:10:59.202Z,772.28
2018-01-22T00:11:03.009Z,772.28
2018-01-22T00:11:07.034Z,772.29
2018-01-22T00:11:11.265Z,772.3
2018-01-22T00:11:15.075Z,772.3
2018-01-22T00:11:19.182Z,772.28
2018-01-22T00:11:23.086Z,772.32
2018-01-22T00:11:26.784Z,772.29
2018-01-22T00:11:30.795Z,772.32
2018-01-22T00:11:34.604Z,772.31
2018-01-22T00:11:38.612Z,772.34
2018-01-22T00:11:42.414Z,772.3
2018-01-22T00:11:46.123Z,772.33
2018-01-22T00:11:49.937Z,772.35
2018-01-22T00:11:53.850Z,772.3
2018-01-22T00:11:57.775Z,772.3
2018-01-22T00:12:01.682Z,772.37
2018-01-22T00:12:06.032Z,772.38
2018-01-22T00:12:09.931Z,772.37
2018-01-22T00:12:14.049Z,772.42
2018-01-22T00:12:18.180Z,772.38
2018-01-22T00:12:21.971Z,772.39
2018-01-22T00:12:25.897Z,772.4
2018-01-22T00:12:29.815Z,772.41
2018-01-22T00:12:33.831Z,772.42
2018-01-22T00:12:37.964Z,772.45
2018-01-22T00:12:41.860Z,772.4
2018-01-22T00:12:45.867Z,772.41
2018-01-22T00:12:49.922Z,772.43
2018-01-22T00:12:54.148Z,772.43
2018-01-22T00:12:58.063Z,772.36
2018-01-22T00:13:02.082Z,772.39
2018-01-22T00:13:06.202Z,772.4
2018-01-22T00:13:10.216Z,772.4
2018-01-22T00:13:14.126Z,772.43
2018-01-22T00:13:18.141Z,772.5
2018-01-22T00:13:22.062Z,772.46
2018-01-22T00:13:26.077Z,772.49
2018-01-22T00:13:29.885Z,772.5
2018-01-22T00:13:33.708Z,772.5
2018-01-22T00:13:37.534Z,772.5
2018-01-22T00:13:41.340Z,772.51
2018-01-22T00:13:45.044Z,772.54
2018-01-22T00:13:48.840Z,772.54
2018-01-22T00:13:52.545Z,772.6
2018-01-22T00:13:56.451Z,772.56
2018-01-22T00:14:00.466Z,772.55
2018-01-22T00:14:04.791Z,772.57
2018-01-22T00:14:08.758Z,772.5
2018-01-22T00:14:12.688Z,772.52
2018-01-22T00:14:16.807Z,772.53
2018-01-22T00:14:20.836Z,772.54
2018-01-22T00:14:24.949Z,772.57
2018-01-22T00:14:28.846Z,772.54
2018-01-22T00:14:32.757Z,772.58
2018-01-22T00:14:36.791Z,772.6
2018-01-22T00:14:40.597Z,772.59
2018-01-22T00:14:44.420Z,772.59
2018-01-22T00:14:48.429Z,772.59
2018-01-22T00:14:52.354Z,772.58
2018-01-22T00:14:56.051Z,772.59
2018-01-22T00:14:59.960Z,772.59
2018-01-22T00:15:03.785Z,772.63
2018-01-22T00:15:07.816Z,772.61
2018-01-22T00:15:11.720Z,772.56
2018-01-22T00:15:15.512Z,772.59
2018-01-22T00:15:19.421Z,772.59
2018-01-22T00:15:23.434Z,772.58
2018-01-22T00:15:27.233Z,772.57
2018-01-22T00:15:31.044Z,772.59
2018-01-22T00:15:35.046Z,772.6
2018-01-22T00:15:38.844Z,772.65
2018-01-22T00:15:42.866Z,772.65
2018-01-22T00:15:46.783Z,772.66
2018-01-22T00:15:50.811Z,772.66
2018-01-22T00:15:54.714Z,772.67
2018-01-22T00:15:58.500Z,772.68
2018-01-22T00:16:02.565Z,772.71
2018-01-22T00:16:06.582Z,772.68
2018-01-22T00:16:10.397Z,772.65
2018-01-22T00:16:14.517Z,772.68
2018-01-22T00:16:18.426Z,772.72
2018-01-22T00:16:22.595Z,772.71
2018-01-22T00:16:26.415Z,772.7
2018-01-22T00:16:30.434Z,772.73
2018-01-22T00:16:34.346Z,772.7
2018-01-22T00:16:38.153Z,772.7
2018-01-22T00:16:41.967Z,772.71
2018-01-22T00:16:45.877Z,772.69
2018-01-22T00:16:49.796Z,772.72
2018-01-22T00:16:53.706Z,772.7
2018-01-22T00:16:57.612Z,772.72
2018-01-22T00:17:01.731Z,772.72
2018-01-22T00:17:05.533Z,772.77
2018-01-22T00:17:09.566Z,772.73
2018-01-22T00:17:13.485Z,772.78
2018-01-22T00:17:17.388Z,772.76
2018-01-22T00:17:21.080Z,772.77
2018-01-22T00:17:25.009Z,772.77
2018-01-22T00:17:28.914Z,772.77
2018-01-22T00:17:32.930Z,772.8
2018-01-22T00:17:36.831Z,772.78
2018-01-22T00:17:40.516Z,772.78
2018-01-22T00:17:44.647Z,772.8
2018-01-22T00:17:48.802Z,772.79
2018-01-22T00:17:52.821Z,772.8
2018-01-22T00:17:56.643Z,772.8
2018-01-22T00:18:00.774Z,772.83
2018-01-22T00:18:05.094Z,772.82
2018-01-22T00:18:09.122Z,772.83
2018-01-22T00:18:13.032Z,772.81
2018-01-22T00:18:16.957Z,772.82
2018-01-22T00:18:20.966Z,772.85
2018-01-22T00:18:24.881Z,772.79
2018-01-22T00:18:28.897Z,772.84
2018-01-22T00:18:32.920Z,772.86
2018-01-22T00:18:36.837Z,772.84
2018-01-22T00:18:40.544Z,772.89
2018-01-22T00:18:44.455Z,772.88
2018-01-22T00:18:48.143Z,772.9
2018-01-22T00:18:52.160Z,772.91
2018-01-22T00:18:56.302Z,772.85
2018-01-22T00:19:00.316Z,772.89
2018-01-22T00:19:04.345Z,772.91
2018-01-22T00:19:08.141Z,772.94
2018-01-22T00:19:12.167Z,772.92
2018-01-22T00:19:16.072Z,772.95
2018-01-22T00:19:19.976Z,772.9
2018-01-22T00:19:23.996Z,772.9
2018-01-22T00:19:28.127Z,772.92
2018-01-22T00:19:32.152Z,772.92
2018-01-22T00:19:35.859Z,772.92
2018-01-22T00:19:39.659Z,772.92
2018-01-22T00:19:43.571Z,772.94
2018-01-22T00:19:47.479Z,772.96
2018-01-22T00:19:51.394Z,772.92
2018-01-22T00:19:55.407Z,772.97
2018-01-22T00:19:59.315Z,772.97
2018-01-22T00:20:03.450Z,773.01
2018-01-22T00:20:07.479Z,772.97
2018-01-22T00:20:11.381Z,773
2018-01-22T00:20:15.196Z,772.98
2018-01-22T00:20:19.317Z,772.97
2018-01-22T00:20:23.546Z,773.03
2018-01-22T00:20:27.656Z,773.01
2018-01-22T00:20:31.582Z,773.06
2018-01-22T00:20:35.587Z,773.02
2018-01-22T00:20:39.401Z,773.03
2018-01-22T00:20:43.431Z,773.03
2018-01-22T00:20:47.451Z,773.04
2018-01-22T00:20:51.267Z,773.07
2018-01-22T00:20:55.188Z,773.09
2018-01-22T00:20:59.097Z,773.04
2018-01-22T00:21:03.213Z,773.05
2018-01-22T00:21:07.221Z,773.05
2018-01-22T00:21:11.227Z,773.08
2018-01-22T00:21:15.332Z,773.1
2018-01-22T00:21:19.465Z,773.14
2018-01-22T00:21:23.369Z,773.1
2018-01-22T00:21:27.192Z,773.09
2018-01-22T00:21:31.100Z,773.1
2018-01-22T00:21:35.120Z,773.1
2018-01-22T00:21:39.244Z,773.11
2018-01-22T00:21:43.470Z,773.11
2018-01-22T00:21:47.477Z,773.14
2018-01-22T00:21:51.498Z,773.11
2018-01-22T00:21:55.186Z,773.13
2018-01-22T00:21:59.105Z,773.14
2018-01-22T00:22:03.365Z,773.15
2018-01-22T00:22:07.180Z,773.13
2018-01-22T00:22:11.091Z,773.16
2018-01-22T00:22:15.290Z,773.15
2018-01-22T00:22:19.203Z,773.17
2018-01-22T00:22:23.121Z,773.16
2018-01-22T00:22:26.827Z,773.15
2018-01-22T00:22:30.742Z,773.15
2018-01-22T00:22:34.755Z,773.17
2018-01-22T00:22:38.553Z,773.2
2018-01-22T00:22:42.462Z,773.17
2018-01-22T00:22:46.165Z,773.21
2018-01-22T00:22:49.976Z,773.18
2018-01-22T00:22:53.778Z,773.22
2018-01-22T00:22:57.848Z,773.2
2018-01-22T00:23:02.184Z,773.2
2018-01-22T00:23:06.216Z,773.2
2018-01-22T00:23:10.333Z,773.2
2018-01-22T00:23:14.465Z,773.21
2018-01-22T00:23:18.581Z,773.24
2018-01-22T00:23:22.601Z,773.21
2018-01-22T00:23:26.409Z,773.21
2018-01-22T00:23:30.217Z,773.24
2018-01-22T00:23:34.124Z,773.26
2018-01-22T00:23:38.042Z,773.22
2018-01-22T00:23:41.744Z,773.24
2018-01-22T00:23:45.660Z,773.27
2018-01-22T00:23:49.592Z,773.25
2018-01-22T00:23:53.387Z,773.27
2018-01-22T00:23:57.192Z,773.29
2018-01-22T00:24:01.210Z,773.28
2018-01-22T00:24:05.414Z,773.27
2018-01-22T00:24:09.436Z,773.28
2018-01-22T00:24:13.554Z,773.3
2018-01-22T00:24:17.551Z,773.29
2018-01-22T00:24:21.452Z,773.32
2018-01-22T00:24:25.367Z,773.31
2018-01-22T00:24:29.070Z,773.32
2018-01-22T00:24:32.882Z,773.34
2018-01-22T00:24:36.807Z,773.3
2018-01-22T00:24:40.817Z,773.3
2018-01-22T00:24:44.619Z,773.3
2018-01-22T00:24:48.439Z,773.35
2018-01-22T00:24:52.560Z,773.32
2018-01-22T00:24:56.378Z,773.33
2018-01-22T00:25:00.523Z,773.33
2018-01-22T00:25:04.429Z,773.36
2018-01-22T00:25:08.339Z,773.33
2018-01-22T00:25:12.472Z,773.35
2018-01-22T00:25:16.482Z,773.36
2018-01-22T00:25:20.384Z,773.38
2018-01-22T00:25:24.184Z,773.38
2018-01-22T00:25:28.101Z,773.36
2018-01-22T00:25:32.117Z,773.36
2018-01-22T00:25:35.810Z,773.39
2018-01-22T00:25:39.625Z,773.38
2018-01-22T00:25:43.435Z,773.41
2018-01-22T00:25:47.250Z,773.41
2018-01-22T00:25:51.048Z,773.41
2018-01-22T00:25:55.073Z,773.43
2018-01-22T00:25:58.990Z,773.44
2018-01-22T00:26:03.524Z,773.41
2018-01-22T00:26:07.328Z,773.42
2018-01-22T00:26:11.440Z,773.4
2018-01-22T00:26:15.348Z,773.43
2018-01-22T00:26:19.376Z,773.4
2018-01-22T00:26:23.290Z,773.45
2018-01-22T00:26:27.197Z,773.37
2018-01-22T00:26:31.425Z,773.39
2018-01-22T00:26:35.432Z,773.41
2018-01-22T00:26:39.239Z,773.43
2018-01-22T00:26:43.270Z,773.41
2018-01-22T00:26:47.072Z,773.36
2018-01-22T00:26:51.087Z,773.4
2018-01-22T00:26:55.106Z,773.46
2018-01-22T00:26:59.125Z,773.45
2018-01-22T00:27:03.245Z,773.44
2018-01-22T00:27:07.055Z,773.46
2018-01-22T00:27:11.188Z,773.45
2018-01-22T00:27:15.322Z,773.47
2018-01-22T00:27:19.328Z,773.49
2018-01-22T00:27:23.254Z,773.5
2018-01-22T00:27:27.052Z,773.47
2018-01-22T00:27:30.958Z,773.48
2018-01-22T00:27:34.759Z,773.5
2018-01-22T00:27:38.574Z,773.48
2018-01-22T00:27:42.599Z,773.43
2018-01-22T00:27:46.404Z,773.44
2018-01-22T00:27:50.195Z,773.44
2018-01-22T00:27:54.203Z,773.45
2018-01-22T00:27:58.119Z,773.46
2018-01-22T00:28:02.141Z,773.52
2018-01-22T00:28:06.257Z,773.5
2018-01-22T00:28:10.060Z,773.46
2018-01-22T00:28:14.081Z,773.52
2018-01-22T00:28:18.046Z,773.52
2018-01-22T00:28:22.175Z,773.48
2018-01-22T00:28:26.101Z,773.52
2018-01-22T00:28:29.906Z,773.54
2018-01-22T00:28:33.809Z,773.58
2018-01-22T00:28:37.709Z,773.52
2018-01-22T00:28:41.720Z,773.54
2018-01-22T00:28:45.641Z,773.47
2018-01-22T00:28:49.338Z,773.51
2018-01-22T00:28:53.039Z,773.52
2018-01-22T00:28:57.049Z,773.5
2018-01-22T00:29:00.958Z,773.48
2018-01-22T00:29:04.967Z,773.52
2018-01-22T00:29:09.092Z,773.5
2018-01-22T00:29:12.906Z,773.49
2018-01-22T00:29:16.714Z,773.58
2018-01-22T00:29:20.723Z,773.55
2018-01-22T00:29:24.629Z,773.54
2018-01-22T00:29:28.439Z,773.56
2018-01-22T00:29:32.466Z,773.6
2018-01-22T00:29:36.487Z,773.56
2018-01-22T00:29:40.176Z,773.57
2018-01-22T00:29:44.092Z,773.56
2018-01-22T00:29:48.039Z,773.6
2018-01-22T00:29:52.044Z,773.59
2018-01-22T00:29:55.741Z,773.58
2018-01-22T00:29:59.851Z,773.6
2018-01-22T00:30:03.931Z,773.59
2018-01-22T00:30:07.943Z,773.59
2018-01-22T00:30:11.869Z,773.58
2018-01-22T00:30:15.986Z,773.57
2018-01-22T00:30:20.207Z,773.57
2018-01-22T00:30:24.242Z,773.62
2018-01-22T00:30:28.262Z,773.6
2018-01-22T00:30:32.295Z,773.6
2018-01-22T00:30:36.205Z,773.6
2018-01-22T00:30:40.238Z,773.58
2018-01-22T00:30:44.245Z,773.62
2018-01-22T00:30:48.060Z,773.62
2018-01-22T00:30:51.967Z,773.59
2018-01-22T00:30:55.780Z,773.63
2018-01-22T00:30:59.806Z,773.62
2018-01-22T00:31:03.927Z,773.62
2018-01-22T00:31:07.735Z,773.62
2018-01-22T00:31:11.659Z,773.61
2018-01-22T00:31:15.467Z,773.62
2018-01-22T00:31:19.471Z,773.64
2018-01-22T00:31:23.498Z,773.61
2018-01-22T00:31:27.413Z,773.66
2018-01-22T00:31:31.525Z,773.64
2018-01-22T00:31:35.429Z,773.62
2018-01-22T00:31:39.229Z,773.66
2018-01-22T00:31:43.134Z,773.63
2018-01-22T00:31:46.832Z,773.63
2018-01-22T00:31:50.630Z,773.64
2018-01-22T00:31:54.550Z,773.66
2018-01-22T00:31:58.553Z,773.64
2018-01-22T00:32:02.726Z,773.66
2018-01-22T00:32:06.757Z,773.66
2018-01-22T00:32:10.873Z,773.64
2018-01-22T00:32:14.766Z,773.67
2018-01-22T00:32:18.672Z,773.66
2018-01-22T00:32:22.470Z,773.69
2018-01-22T00:32:26.499Z,773.65
2018-01-22T00:32:30.411Z,773.65
2018-01-22T00:32:34.318Z,773.67
2018-01-22T00:32:38.222Z,773.65
2018-01-22T00:32:42.132Z,773.66
2018-01-22T00:32:46.257Z,773.7
2018-01-22T00:32:50.271Z,773.69
2018-01-22T00:32:54.400Z,773.69
2018-01-22T00:32:58.534Z,773.69
2018-01-22T00:33:02.817Z,773.69
2018-01-22T00:33:06.725Z,773.7
2018-01-22T00:33:10.747Z,773.7
2018-01-22T00:33:14.764Z,773.72
2018-01-22T00:33:18.672Z,773.69
2018-01-22T00:33:22.597Z,773.69
2018-01-22T00:33:26.618Z,773.67
2018-01-22T00:33:30.541Z,773.68
2018-01-22T00:33:34.545Z,773.7
2018-01-22T00:33:38.447Z,773.68
2018-01-22T00:33:42.682Z,773.68
2018-01-22T00:33:46.795Z,773.7
2018-01-22T00:33:50.620Z,773.68
2018-01-22T00:33:54.543Z,773.69
2018-01-22T00:33:58.656Z,773.72
2018-01-22T00:34:02.742Z,773.71
2018-01-22T00:34:06.455Z,773.67
2018-01-22T00:34:10.243Z,773.69
2018-01-22T00:34:14.148Z,773.68
2018-01-22T00:34:18.172Z,773.72
2018-01-22T00:34:22.184Z,773.69
2018-01-22T00:34:26.088Z,773.71
2018-01-22T00:34:29.902Z,773.69
2018-01-22T00:34:33.694Z,773.7
2018-01-22T00:34:37.499Z,773.7
2018-01-22T00:34:41.313Z,773.72
2018-01-22T00:34:45.223Z,773.71
2018-01-22T00:34:49.125Z,773.67
2018-01-22T00:34:52.937Z,773.71
2018-01-22T00:34:56.851Z,773.71
2018-01-22T00:35:00.978Z,773.72
2018-01-22T00:35:04.786Z,773.72
2018-01-22T00:35:08.702Z,773.7
2018-01-22T00:35:12.918Z,773.72
2018-01-22T00:35:16.827Z,773.73
2018-01-22T00:35:20.842Z,773.72
2018-01-22T00:35:24.876Z,773.71
2018-01-22T00:35:28.996Z,773.7
2018-01-22T00:35:32.800Z,773.71
2018-01-22T00:35:36.752Z,773.71
2018-01-22T00:35:40.775Z,773.72
2018-01-22T00:35:44.692Z,773.71
2018-01-22T00:35:48.508Z,773.7
2018-01-22T00:35:52.322Z,773.72
2018-01-22T00:35:56.041Z,773.69
2018-01-22T00:35:59.954Z,773.76
2018-01-22T00:36:04.072Z,773.74
2018-01-22T00:36:07.877Z,773.73
2018-01-22T00:36:11.702Z,773.73
2018-01-22T00:36:15.713Z,773.73
2018-01-22T00:36:19.427Z,773.72
2018-01-22T00:36:23.327Z,773.69
2018-01-22T00:36:27.241Z,773.7
2018-01-22T00:36:31.158Z,773.72
2018-01-22T00:36:35.057Z,773.72
2018-01-22T00:36:38.758Z,773.72
2018-01-22T00:36:42.783Z,773.73
2018-01-22T00:36:46.801Z,773.71
2018-01-22T00:36:50.601Z,773.74
2018-01-22T00:36:54.411Z,773.72
2018-01-22T00:36:58.319Z,773.74
2018-01-22T00:37:02.441Z,773.73
2018-01-22T00:37:06.249Z,773.74
2018-01-22T00:37:10.156Z,773.77
2018-01-22T00:37:14.188Z,773.76
2018-01-22T00:37:18.092Z,773.74
2018-01-22T00:37:22.106Z,773.75
2018-01-22T00:37:26.019Z,773.76
2018-01-22T00:37:29.832Z,773.74
2018-01-22T00:37:33.738Z,773.75
2018-01-22T00:37:37.447Z,773.71
2018-01-22T00:37:41.249Z,773.75
2018-01-22T00:37:45.061Z,773.72
2018-01-22T00:37:48.868Z,773.71
2018-01-22T00:37:52.587Z,773.76
2018-01-22T00:37:56.395Z,773.77
2018-01-22T00:38:00.300Z,773.78
2018-01-22T00:38:04.575Z,773.77
2018-01-22T00:38:08.714Z,773.83
2018-01-22T00:38:12.669Z,773.8
2018-01-22T00:38:16.795Z,773.79
2018-01-22T00:38:20.904Z,773.81
2018-01-22T00:38:25.026Z,773.84
2018-01-22T00:38:29.132Z,773.8
2018-01-22T00:38:33.031Z,773.82
2018-01-22T00:38:37.152Z,773.8
2018-01-22T00:38:41.164Z,773.82
2018-01-22T00:38:45.078Z,773.8
2018-01-22T00:38:48.979Z,773.83
2018-01-22T00:38:52.879Z,773.85
2018-01-22T00:38:56.990Z,773.82
2018-01-22T00:39:00.905Z,773.82
2018-01-22T00:39:05.217Z,773.85
2018-01-22T00:39:09.170Z,773.81
2018-01-22T00:39:12.865Z,773.81
2018-01-22T00:39:16.668Z,773.82
2018-01-22T00:39:20.575Z,773.82
2018-01-22T00:39:24.389Z,773.84
2018-01-22T00:39:28.208Z,773.86
2018-01-22T00:39:31.904Z,773.86
2018-01-22T00:39:36.013Z,773.84
2018-01-22T00:39:39.928Z,773.83
2018-01-22T00:39:43.941Z,773.86
2018-01-22T00:39:48.191Z,773.88
2018-01-22T00:39:52.204Z,773.85
2018-01-22T00:39:56.332Z,773.87
2018-01-22T00:40:00.449Z,773.84
2018-01-22T00:40:04.638Z,773.87
2018-01-22T00:40:08.439Z,773.89
2018-01-22T00:40:12.563Z,773.88
2018-01-22T00:40:16.706Z,773.89
2018-01-22T00:40:20.609Z,773.87
2018-01-22T00:40:24.522Z,773.87
2018-01-22T00:40:28.754Z,773.89
2018-01-22T00:40:32.689Z,773.91
2018-01-22T00:40:36.715Z,773.88
2018-01-22T00:40:40.744Z,773.9
2018-01-22T00:40:44.649Z,773.9
2018-01-22T00:40:48.560Z,773.91
2018-01-22T00:40:52.562Z,773.92
2018-01-22T00:40:56.570Z,773.91
2018-01-22T00:41:00.398Z,773.91
2018-01-22T00:41:04.632Z,773.95
2018-01-22T00:41:08.433Z,773.93
2018-01-22T00:41:12.159Z,773.95
2018-01-22T00:41:16.298Z,773.93
2018-01-22T00:41:20.022Z,773.93
2018-01-22T00:41:23.836Z,773.89
2018-01-22T00:41:27.840Z,773.91
2018-01-22T00:41:31.754Z,773.93
2018-01-22T00:41:35.558Z,773.91
2018-01-22T00:41:39.888Z,773.96
2018-01-22T00:41:44.101Z,773.94
2018-01-22T00:41:47.797Z,773.92
2018-01-22T00:41:51.711Z,773.95
2018-01-22T00:41:55.735Z,773.93
2018-01-22T00:41:59.753Z,774
2018-01-22T00:42:03.991Z,773.99
2018-01-22T00:42:07.898Z,773.96
2018-01-22T00:42:12.030Z,773.95
2018-01-22T00:42:15.930Z,774.01
2018-01-22T00:42:19.940Z,773.97
2018-01-22T00:42:23.967Z,774.01
2018-01-22T00:42:27.886Z,773.96
2018-01-22T00:42:31.572Z,773.99
2018-01-22T00:42:35.470Z,773.99
2018-01-22T00:42:39.500Z,774.03
2018-01-22T00:42:43.433Z,774.02
2018-01-22T00:42:47.438Z,774.01
2018-01-22T00:42:51.379Z,773.99
2018-01-22T00:42:55.348Z,774
2018-01-22T00:42:59.361Z,773.99
2018-01-22T00:43:03.162Z,774.01
2018-01-22T00:43:07.125Z,774.03
2018-01-22T00:43:11.034Z,773.99
2018-01-22T00:43:15.171Z,774.04
2018-01-22T00:43:19.189Z,774.03
2018-01-22T00:43:23.204Z,774.04
2018-01-22T00:43:27.427Z,774.06
2018-01-22T00:43:31.239Z,773.99
2018-01-22T00:43:34.940Z,774.03
2018-01-22T00:43:38.633Z,774.03
2018-01-22T00:43:42.644Z,774.02
2018-01-22T00:43:46.661Z,774.03
2018-01-22T00:43:50.584Z,774.05
2018-01-22T00:43:54.597Z,774.05
2018-01-22T00:43:58.609Z,774.06
2018-01-22T00:44:02.709Z,774.07
2018-01-22T00:44:06.731Z,774.02
2018-01-22T00:44:10.641Z,774.06
2018-01-22T00:44:14.455Z,774.03
2018-01-22T00:44:18.578Z,774.06
2018-01-22T00:44:22.579Z,774.06
2018-01-22T00:44:26.477Z,774.05
2018-01-22T00:44:30.594Z,774.07
2018-01-22T00:44:34.394Z,774.04
2018-01-22T00:44:38.395Z,774.08
2018-01-22T00:44:42.406Z,774.09
2018-01-22T00:44:46.428Z,774.07
2018-01-22T00:44:50.239Z,774.09
2018-01-22T00:44:54.382Z,774.09
2018-01-22T00:44:58.290Z,774.09
2018-01-22T00:45:02.562Z,774.11
2018-01-22T00:45:06.587Z,774.06
2018-01-22T00:45:10.404Z,774.06
2018-01-22T00:45:14.420Z,774.1
2018-01-22T00:45:18.541Z,774.08
2018-01-22T00:45:22.655Z,774.08
2018-01-22T00:45:26.489Z,774.07
2018-01-22T00:45:30.603Z,774.09
2018-01-22T00:45:34.527Z,774.12
2018-01-22T00:45:38.236Z,774.13
2018-01-22T00:45:42.053Z,774.16
2018-01-22T00:45:45.967Z,774.12
2018-01-22T00:45:49.873Z,774.11
2018-01-22T00:45:53.891Z,774.14
2018-01-22T00:45:58.013Z,774.12
2018-01-22T00:46:02.041Z,774.12
2018-01-22T00:46:05.970Z,774.16
2018-01-22T00:46:09.991Z,774.13
2018-01-22T00:46:13.999Z,774.16
2018-01-22T00:46:17.920Z,774.17
2018-01-22T00:46:21.839Z,774.16
2018-01-22T00:46:25.655Z,774.18
2018-01-22T00:46:29.576Z,774.17
2018-01-22T00:46:33.382Z,774.15
2018-01-22T00:46:37.497Z,774.18
2018-01-22T00:46:41.626Z,774.2
2018-01-22T00:46:45.421Z,774.19
2018-01-22T00:46:49.248Z,774.21
2018-01-22T00:46:53.066Z,774.21
2018-01-22T00:46:57.099Z,774.23
2018-01-22T00:47:01.128Z,774.18
2018-01-22T00:47:04.987Z,774.21
2018-01-22T00:47:08.903Z,774.23
2018-01-22T00:47:12.814Z,774.22
2018-01-22T00:47:16.701Z,774.21
2018-01-22T00:47:20.717Z,774.24
2018-01-22T00:47:24.614Z,774.24
2018-01-22T00:47:28.638Z,774.17
2018-01-22T00:47:32.590Z,774.17
2018-01-22T00:47:36.506Z,774.19
2018-01-22T00:47:40.407Z,774.22
2018-01-22T00:47:44.123Z,774.21
2018-01-22T00:47:48.146Z,774.24
2018-01-22T00:47:51.972Z,774.24
2018-01-22T00:47:55.992Z,774.22
2018-01-22T00:47:59.894Z,774.24
2018-01-22T00:48:04.217Z,774.26
2018-01-22T00:48:08.126Z,774.26
2018-01-22T00:48:12.178Z,774.27
2018-01-22T00:48:16.198Z,774.32
2018-01-22T00:48:19.898Z,774.29
2018-01-22T00:48:23.813Z,774.3
2018-01-22T00:48:27.728Z,774.33
2018-01-22T00:48:31.649Z,774.33
2018-01-22T00:48:35.563Z,774.31
2018-01-22T00:48:39.592Z,774.35
2018-01-22T00:48:43.501Z,774.35
2018-01-22T00:48:47.218Z,774.33
2018-01-22T00:48:51.118Z,774.34
2018-01-22T00:48:54.968Z,774.33
2018-01-22T00:48:58.776Z,774.34
2018-01-22T00:49:02.839Z,774.35
2018-01-22T00:49:06.622Z,774.36
2018-01-22T00:49:10.318Z,774.36
2018-01-22T00:49:14.338Z,774.38
2018-01-22T00:49:18.041Z,774.37
2018-01-22T00:49:22.073Z,774.29
2018-01-22T00:49:25.881Z,774.32
2018-01-22T00:49:29.685Z,774.35
2018-01-22T00:49:33.486Z,774.36
2018-01-22T00:49:37.305Z,774.36
2018-01-22T00:49:41.319Z,774.39
2018-01-22T00:49:45.337Z,774.39
2018-01-22T00:49:49.253Z,774.36
2018-01-22T00:49:53.274Z,774.39
2018-01-22T00:49:57.400Z,774.41
2018-01-22T00:50:01.317Z,774.42